sensor_id;sensor_type;location;lat;lon;timestamp;temperature;humidity
20839;DHT22;10580;51.092;6.828;2022-09-12T00:01:51;14.10;99.90
20839;DHT22;10580;51.092;6.828;2022-09-12T00:04:16;14.00;99.90
20839;DHT22;10580;51.092;6.828;2022-09-12T00:06:42;14.00;99.90
20839;DHT22;10580;51.092;6.828;2022-09-12T00:09:10;14.10;99.90
20839;DHT22;10580;51.092;6.828;2022-09-12T00:11:37;14.00;99.90
20839;DHT22;10580;51.092;6.828;2022-09-12T00:14:04;14.10;99.90
20839;DHT22;10580;51.092;6.828;2022-09-12T00:16:32;14.00;99.90
20839;DHT22;10580;51.092;6.828;2022-09-12T00:18:58;14.10;99.90
20839;DHT22;10580;51.092;6.828;2022-09-12T00:21:24;14.10;99.90
20839;DHT22;10580;51.092;6.828;2022-09-12T00:23:50;14.10;99.90
20839;DHT22;10580;51.092;6.828;2022-09-12T00:26:16;14.10;99.90
20839;DHT22;10580;51.092;6.828;2022-09-12T00:28:43;14.10;99.90
20839;DHT22;10580;51.092;6.828;2022-09-12T00:31:12;14.10;99.90
20839;DHT22;10580;51.092;6.828;2022-09-12T00:33:38;14.00;99.90
20839;DHT22;10580;51.092;6.828;2022-09-12T00:36:07;14.00;99.90
20839;DHT22;10580;51.092;6.828;2022-09-12T00:38:33;14.00;99.90
20839;DHT22;10580;51.092;6.828;2022-09-12T00:41:03;14.00;99.90
20839;DHT22;10580;51.092;6.828;2022-09-12T00:43:37;13.90;99.90
20839;DHT22;10580;51.092;6.828;2022-09-12T00:46:20;13.90;99.90
20839;DHT22;10580;51.092;6.828;2022-09-12T00:51:22;13.90;99.90
20839;DHT22;10580;51.092;6.828;2022-09-12T00:53:49;13.90;99.90
20839;DHT22;10580;51.092;6.828;2022-09-12T00:56:18;13.80;99.90
20839;DHT22;10580;51.092;6.828;2022-09-12T00:58:52;13.80;99.90
20839;DHT22;10580;51.092;6.828;2022-09-12T01:01:20;13.80;99.90
20839;DHT22;10580;51.092;6.828;2022-09-12T01:03:46;13.80;99.90
20839;DHT22;10580;51.092;6.828;2022-09-12T01:06:18;13.70;99.90
20839;DHT22;10580;51.092;6.828;2022-09-12T01:08:46;13.70;99.90
20839;DHT22;10580;51.092;6.828;2022-09-12T01:11:13;13.70;99.90
20839;DHT22;10580;51.092;6.828;2022-09-12T01:13:40;13.70;99.90
20839;DHT22;10580;51.092;6.828;2022-09-12T01:16:07;13.60;99.90
20839;DHT22;10580;51.092;6.828;2022-09-12T01:21:31;13.60;99.90
20839;DHT22;10580;51.092;6.828;2022-09-12T01:35:11;13.60;99.90
20839;DHT22;10580;51.092;6.828;2022-09-12T01:37:52;13.60;99.90
20839;DHT22;10580;51.092;6.828;2022-09-12T01:43:30;13.60;99.90
20839;DHT22;10580;51.092;6.828;2022-09-12T01:48:43;13.70;99.90
20839;DHT22;10580;51.092;6.828;2022-09-12T01:53:55;13.70;99.90
20839;DHT22;10580;51.092;6.828;2022-09-12T01:56:25;13.70;99.90
20839;DHT22;10580;51.092;6.828;2022-09-12T01:59:00;13.70;99.90
20839;DHT22;10580;51.092;6.828;2022-09-12T02:01:39;13.70;99.90
20839;DHT22;10580;51.092;6.828;2022-09-12T02:04:13;13.70;99.90
20839;DHT22;10580;51.092;6.828;2022-09-12T02:06:55;13.70;99.90
20839;DHT22;10580;51.092;6.828;2022-09-12T02:12:54;13.70;99.90
20839;DHT22;10580;51.092;6.828;2022-09-12T02:15:43;13.70;99.90
20839;DHT22;10580;51.092;6.828;2022-09-12T02:18:19;13.60;99.90
20839;DHT22;10580;51.092;6.828;2022-09-12T02:24:11;13.60;99.90
20839;DHT22;10580;51.092;6.828;2022-09-12T02:26:49;13.60;99.90
20839;DHT22;10580;51.092;6.828;2022-09-12T02:29:17;13.60;99.90
20839;DHT22;10580;51.092;6.828;2022-09-12T02:31:48;13.60;99.90
20839;DHT22;10580;51.092;6.828;2022-09-12T02:39:30;13.60;99.90
20839;DHT22;10580;51.092;6.828;2022-09-12T02:41:58;13.50;99.90
20839;DHT22;10580;51.092;6.828;2022-09-12T02:44:26;13.50;99.90
20839;DHT22;10580;51.092;6.828;2022-09-12T02:47:00;13.50;99.90
20839;DHT22;10580;51.092;6.828;2022-09-12T02:49:47;13.50;99.90
20839;DHT22;10580;51.092;6.828;2022-09-12T02:52:13;13.50;99.90
20839;DHT22;10580;51.092;6.828;2022-09-12T02:54:39;13.60;99.90
20839;DHT22;10580;51.092;6.828;2022-09-12T02:57:19;13.60;99.90
20839;DHT22;10580;51.092;6.828;2022-09-12T02:59:45;13.50;99.90
20839;DHT22;10580;51.092;6.828;2022-09-12T03:02:53;13.50;99.90
20839;DHT22;10580;51.092;6.828;2022-09-12T03:05:33;13.50;99.90
20839;DHT22;10580;51.092;6.828;2022-09-12T03:08:13;13.50;99.90
20839;DHT22;10580;51.092;6.828;2022-09-12T03:20:02;13.40;99.90
20839;DHT22;10580;51.092;6.828;2022-09-12T03:22:58;13.40;99.90
20839;DHT22;10580;51.092;6.828;2022-09-12T03:25:34;13.30;99.90
20839;DHT22;10580;51.092;6.828;2022-09-12T03:28:05;13.40;99.90
20839;DHT22;10580;51.092;6.828;2022-09-12T03:30:43;13.30;99.90
20839;DHT22;10580;51.092;6.828;2022-09-12T03:33:17;13.30;99.90
20839;DHT22;10580;51.092;6.828;2022-09-12T03:35:43;13.30;99.90
20839;DHT22;10580;51.092;6.828;2022-09-12T03:38:09;13.30;99.90
20839;DHT22;10580;51.092;6.828;2022-09-12T03:40:36;13.30;99.90
20839;DHT22;10580;51.092;6.828;2022-09-12T03:43:02;13.30;99.90
20839;DHT22;10580;51.092;6.828;2022-09-12T03:45:28;13.30;99.90
20839;DHT22;10580;51.092;6.828;2022-09-12T03:47:54;13.30;99.90
20839;DHT22;10580;51.092;6.828;2022-09-12T03:50:19;13.30;99.90
20839;DHT22;10580;51.092;6.828;2022-09-12T03:52:45;13.20;99.90
20839;DHT22;10580;51.092;6.828;2022-09-12T03:55:10;13.30;99.90
20839;DHT22;10580;51.092;6.828;2022-09-12T03:57:36;13.20;99.90
20839;DHT22;10580;51.092;6.828;2022-09-12T04:00:04;13.20;99.90
20839;DHT22;10580;51.092;6.828;2022-09-12T04:02:30;13.20;99.90
20839;DHT22;10580;51.092;6.828;2022-09-12T04:04:55;13.20;99.90
20839;DHT22;10580;51.092;6.828;2022-09-12T04:07:21;13.20;99.90
20839;DHT22;10580;51.092;6.828;2022-09-12T04:09:52;13.20;99.90
20839;DHT22;10580;51.092;6.828;2022-09-12T04:12:18;13.20;99.90
20839;DHT22;10580;51.092;6.828;2022-09-12T04:14:44;13.20;99.90
20839;DHT22;10580;51.092;6.828;2022-09-12T04:17:10;13.10;99.90
20839;DHT22;10580;51.092;6.828;2022-09-12T04:19:35;13.10;99.90
20839;DHT22;10580;51.092;6.828;2022-09-12T04:22:01;13.10;99.90
20839;DHT22;10580;51.092;6.828;2022-09-12T04:24:27;13.20;99.90
20839;DHT22;10580;51.092;6.828;2022-09-12T04:26:52;13.20;99.90
20839;DHT22;10580;51.092;6.828;2022-09-12T04:29:18;13.20;99.90
20839;DHT22;10580;51.092;6.828;2022-09-12T04:31:44;13.20;99.90
20839;DHT22;10580;51.092;6.828;2022-09-12T04:34:09;13.20;99.90
20839;DHT22;10580;51.092;6.828;2022-09-12T04:36:35;13.20;99.90
20839;DHT22;10580;51.092;6.828;2022-09-12T04:39:03;13.20;99.90
20839;DHT22;10580;51.092;6.828;2022-09-12T04:41:34;13.20;99.90
20839;DHT22;10580;51.092;6.828;2022-09-12T04:44:03;13.20;99.90
20839;DHT22;10580;51.092;6.828;2022-09-12T04:46:32;13.20;99.90
20839;DHT22;10580;51.092;6.828;2022-09-12T04:48:58;13.20;99.90
20839;DHT22;10580;51.092;6.828;2022-09-12T04:51:27;13.20;99.90
20839;DHT22;10580;51.092;6.828;2022-09-12T04:53:56;13.20;99.90
20839;DHT22;10580;51.092;6.828;2022-09-12T04:56:22;13.30;99.90
20839;DHT22;10580;51.092;6.828;2022-09-12T04:58:48;13.20;99.90
20839;DHT22;10580;51.092;6.828;2022-09-12T05:01:16;13.20;99.90
20839;DHT22;10580;51.092;6.828;2022-09-12T05:03:44;13.30;99.90
20839;DHT22;10580;51.092;6.828;2022-09-12T05:06:22;13.20;99.90
20839;DHT22;10580;51.092;6.828;2022-09-12T05:08:48;13.30;99.90
20839;DHT22;10580;51.092;6.828;2022-09-12T05:11:17;13.20;99.90
20839;DHT22;10580;51.092;6.828;2022-09-12T05:13:43;13.20;99.90
20839;DHT22;10580;51.092;6.828;2022-09-12T05:16:10;13.30;99.90
20839;DHT22;10580;51.092;6.828;2022-09-12T05:18:37;13.30;99.90
20839;DHT22;10580;51.092;6.828;2022-09-12T05:21:09;13.40;99.90
20839;DHT22;10580;51.092;6.828;2022-09-12T05:23:35;13.40;99.90
20839;DHT22;10580;51.092;6.828;2022-09-12T05:26:03;13.40;99.90
20839;DHT22;10580;51.092;6.828;2022-09-12T05:28:31;13.40;99.90
20839;DHT22;10580;51.092;6.828;2022-09-12T05:31:07;13.50;99.90
20839;DHT22;10580;51.092;6.828;2022-09-12T05:33:35;13.60;99.90
20839;DHT22;10580;51.092;6.828;2022-09-12T05:36:03;13.70;99.90
20839;DHT22;10580;51.092;6.828;2022-09-12T05:38:29;13.80;99.90
20839;DHT22;10580;51.092;6.828;2022-09-12T05:41:09;13.90;99.90
20839;DHT22;10580;51.092;6.828;2022-09-12T05:43:38;14.10;99.90
20839;DHT22;10580;51.092;6.828;2022-09-12T05:46:13;14.90;99.90
20839;DHT22;10580;51.092;6.828;2022-09-12T05:48:41;16.00;99.90
20839;DHT22;10580;51.092;6.828;2022-09-12T05:51:10;17.20;99.90
20839;DHT22;10580;51.092;6.828;2022-09-12T05:53:37;17.70;99.90
20839;DHT22;10580;51.092;6.828;2022-09-12T05:56:10;17.80;99.90
20839;DHT22;10580;51.092;6.828;2022-09-12T05:58:39;17.50;99.90
20839;DHT22;10580;51.092;6.828;2022-09-12T06:01:07;17.20;99.90
20839;DHT22;10580;51.092;6.828;2022-09-12T06:03:42;16.90;99.90
20839;DHT22;10580;51.092;6.828;2022-09-12T06:06:09;16.60;99.90
20839;DHT22;10580;51.092;6.828;2022-09-12T06:08:39;16.60;99.90
20839;DHT22;10580;51.092;6.828;2022-09-12T06:11:06;16.80;99.90
20839;DHT22;10580;51.092;6.828;2022-09-12T06:13:33;17.20;99.90
20839;DHT22;10580;51.092;6.828;2022-09-12T06:16:08;18.20;99.90
20839;DHT22;10580;51.092;6.828;2022-09-12T06:18:35;18.70;99.90
20839;DHT22;10580;51.092;6.828;2022-09-12T06:21:06;18.50;99.90
20839;DHT22;10580;51.092;6.828;2022-09-12T06:23:36;18.20;99.90
20839;DHT22;10580;51.092;6.828;2022-09-12T06:26:11;18.00;99.90
20839;DHT22;10580;51.092;6.828;2022-09-12T06:28:41;17.70;99.90
20839;DHT22;10580;51.092;6.828;2022-09-12T06:31:13;17.50;99.90
20839;DHT22;10580;51.092;6.828;2022-09-12T06:33:42;17.50;99.90
20839;DHT22;10580;51.092;6.828;2022-09-12T06:38:35;17.40;99.90
20839;DHT22;10580;51.092;6.828;2022-09-12T06:41:05;17.30;99.90
20839;DHT22;10580;51.092;6.828;2022-09-12T06:43:32;17.40;99.90
20839;DHT22;10580;51.092;6.828;2022-09-12T06:45:57;17.50;99.90
20839;DHT22;10580;51.092;6.828;2022-09-12T06:48:23;17.50;99.90
20839;DHT22;10580;51.092;6.828;2022-09-12T06:51:00;17.50;99.90
20839;DHT22;10580;51.092;6.828;2022-09-12T06:53:27;17.50;99.90
20839;DHT22;10580;51.092;6.828;2022-09-12T06:55:58;17.50;99.90
20839;DHT22;10580;51.092;6.828;2022-09-12T06:58:25;17.50;99.90
20839;DHT22;10580;51.092;6.828;2022-09-12T07:07:12;18.30;99.90
20839;DHT22;10580;51.092;6.828;2022-09-12T07:09:39;18.60;99.90
20839;DHT22;10580;51.092;6.828;2022-09-12T07:12:04;18.90;99.90
20839;DHT22;10580;51.092;6.828;2022-09-12T07:14:32;19.30;99.90
20839;DHT22;10580;51.092;6.828;2022-09-12T07:16:57;19.80;99.90
20839;DHT22;10580;51.092;6.828;2022-09-12T07:19:23;20.10;99.90
20839;DHT22;10580;51.092;6.828;2022-09-12T07:21:49;20.20;99.90
20839;DHT22;10580;51.092;6.828;2022-09-12T07:24:15;20.40;99.90
20839;DHT22;10580;51.092;6.828;2022-09-12T07:26:40;20.70;99.90
20839;DHT22;10580;51.092;6.828;2022-09-12T07:29:14;21.10;99.90
20839;DHT22;10580;51.092;6.828;2022-09-12T07:31:43;21.40;70.80
20839;DHT22;10580;51.092;6.828;2022-09-12T07:34:09;21.40;46.30
20839;DHT22;10580;51.092;6.828;2022-09-12T07:36:34;21.20;16.60
20839;DHT22;10580;51.092;6.828;2022-09-12T07:39:00;20.90;23.50
20839;DHT22;10580;51.092;6.828;2022-09-12T07:41:28;21.10;20.00
20839;DHT22;10580;51.092;6.828;2022-09-12T07:43:55;21.20;6.30
20839;DHT22;10580;51.092;6.828;2022-09-12T07:46:22;21.30;1.00
20839;DHT22;10580;51.092;6.828;2022-09-12T07:48:53;21.30;1.00
20839;DHT22;10580;51.092;6.828;2022-09-12T07:51:19;21.40;1.00
20839;DHT22;10580;51.092;6.828;2022-09-12T07:53:45;21.20;1.00
20839;DHT22;10580;51.092;6.828;2022-09-12T07:56:12;22.10;1.00
20839;DHT22;10580;51.092;6.828;2022-09-12T07:58:40;22.20;1.00
20839;DHT22;10580;51.092;6.828;2022-09-12T08:01:10;22.30;1.00
20839;DHT22;10580;51.092;6.828;2022-09-12T08:03:38;22.00;1.00
20839;DHT22;10580;51.092;6.828;2022-09-12T08:06:15;21.90;1.00
20839;DHT22;10580;51.092;6.828;2022-09-12T08:08:48;21.60;1.00
20839;DHT22;10580;51.092;6.828;2022-09-12T08:11:15;21.40;1.00
20839;DHT22;10580;51.092;6.828;2022-09-12T08:16:30;21.20;1.00
20839;DHT22;10580;51.092;6.828;2022-09-12T08:18:56;21.40;1.00
20839;DHT22;10580;51.092;6.828;2022-09-12T08:21:25;21.40;1.00
20839;DHT22;10580;51.092;6.828;2022-09-12T08:23:53;21.30;1.00
20839;DHT22;10580;51.092;6.828;2022-09-12T08:26:19;21.90;1.00
20839;DHT22;10580;51.092;6.828;2022-09-12T08:28:45;22.70;1.00
20839;DHT22;10580;51.092;6.828;2022-09-12T08:31:13;23.80;1.00
20839;DHT22;10580;51.092;6.828;2022-09-12T08:33:39;25.00;1.00
20839;DHT22;10580;51.092;6.828;2022-09-12T08:36:18;25.90;17.90
20839;DHT22;10580;51.092;6.828;2022-09-12T08:38:46;27.00;1.00
20839;DHT22;10580;51.092;6.828;2022-09-12T09:42:26;30.00;1.00
20839;DHT22;10580;51.092;6.828;2022-09-12T09:45:15;29.10;1.00
20839;DHT22;10580;51.092;6.828;2022-09-12T10:09:20;23.80;1.00
20839;DHT22;10580;51.092;6.828;2022-09-12T10:12:26;23.70;1.00
20839;DHT22;10580;51.092;6.828;2022-09-12T10:15:12;23.70;1.00
20839;DHT22;10580;51.092;6.828;2022-09-12T10:21:31;23.80;1.00
20839;DHT22;10580;51.092;6.828;2022-09-12T10:29:20;24.70;99.90
20839;DHT22;10580;51.092;6.828;2022-09-12T10:31:49;25.10;99.90
20839;DHT22;10580;51.092;6.828;2022-09-12T10:34:26;25.40;1.00
20839;DHT22;10580;51.092;6.828;2022-09-12T10:37:07;25.60;99.90
20839;DHT22;10580;51.092;6.828;2022-09-12T10:39:34;25.60;99.90
20839;DHT22;10580;51.092;6.828;2022-09-12T10:42:00;25.60;1.00
20839;DHT22;10580;51.092;6.828;2022-09-12T10:44:31;25.60;1.00
20839;DHT22;10580;51.092;6.828;2022-09-12T10:46:58;25.20;1.00
20839;DHT22;10580;51.092;6.828;2022-09-12T10:49:30;24.80;1.00
20839;DHT22;10580;51.092;6.828;2022-09-12T10:52:22;24.30;99.90
20839;DHT22;10580;51.092;6.828;2022-09-12T10:54:54;24.10;99.90
20839;DHT22;10580;51.092;6.828;2022-09-12T11:00:22;23.80;99.90
20839;DHT22;10580;51.092;6.828;2022-09-12T11:03:14;23.60;99.90
20839;DHT22;10580;51.092;6.828;2022-09-12T11:05:58;23.40;99.90
20839;DHT22;10580;51.092;6.828;2022-09-12T11:15:25;23.40;1.00
20839;DHT22;10580;51.092;6.828;2022-09-12T11:18:25;23.40;99.90
20839;DHT22;10580;51.092;6.828;2022-09-12T11:21:13;23.50;99.90
20839;DHT22;10580;51.092;6.828;2022-09-12T11:26:56;24.10;1.00
20839;DHT22;10580;51.092;6.828;2022-09-12T11:29:46;24.80;1.00
20839;DHT22;10580;51.092;6.828;2022-09-12T11:35:29;25.30;1.00
20839;DHT22;10580;51.092;6.828;2022-09-12T11:40:58;25.90;1.00
20839;DHT22;10580;51.092;6.828;2022-09-12T11:43:44;26.20;1.00
20839;DHT22;10580;51.092;6.828;2022-09-12T11:51:46;26.20;4.20
20839;DHT22;10580;51.092;6.828;2022-09-12T11:54:21;26.50;99.90
20839;DHT22;10580;51.092;6.828;2022-09-12T11:56:53;26.50;99.90
20839;DHT22;10580;51.092;6.828;2022-09-12T12:02:37;26.30;99.90
20839;DHT22;10580;51.092;6.828;2022-09-12T12:05:58;26.40;1.00
20839;DHT22;10580;51.092;6.828;2022-09-12T12:08:16;26.50;1.00
20839;DHT22;10580;51.092;6.828;2022-09-12T12:11:06;26.50;1.00
20839;DHT22;10580;51.092;6.828;2022-09-12T12:13:39;26.60;1.00
20839;DHT22;10580;51.092;6.828;2022-09-12T12:16:30;26.60;1.00
20839;DHT22;10580;51.092;6.828;2022-09-12T12:21:52;26.60;99.90
20839;DHT22;10580;51.092;6.828;2022-09-12T12:24:22;26.70;99.90
20839;DHT22;10580;51.092;6.828;2022-09-12T12:34:41;27.50;99.90
20839;DHT22;10580;51.092;6.828;2022-09-12T12:40:39;27.70;99.90
20839;DHT22;10580;51.092;6.828;2022-09-12T12:47:48;27.20;32.60
20839;DHT22;10580;51.092;6.828;2022-09-12T12:52:58;26.70;99.90
20839;DHT22;10580;51.092;6.828;2022-09-12T12:55:26;27.00;99.90
20839;DHT22;10580;51.092;6.828;2022-09-12T12:58:07;27.20;99.90
20839;DHT22;10580;51.092;6.828;2022-09-12T13:00:45;27.40;99.90
20839;DHT22;10580;51.092;6.828;2022-09-12T13:03:28;27.50;99.90
20839;DHT22;10580;51.092;6.828;2022-09-12T13:06:08;27.30;57.20
20839;DHT22;10580;51.092;6.828;2022-09-12T13:08:58;27.30;3.90
20839;DHT22;10580;51.092;6.828;2022-09-12T13:15:48;27.30;1.00
20839;DHT22;10580;51.092;6.828;2022-09-12T13:18:40;27.30;99.90
20839;DHT22;10580;51.092;6.828;2022-09-12T13:21:13;27.50;99.90
20839;DHT22;10580;51.092;6.828;2022-09-12T13:23:39;27.40;1.00
20839;DHT22;10580;51.092;6.828;2022-09-12T13:26:24;27.60;1.00
20839;DHT22;10580;51.092;6.828;2022-09-12T13:29:08;27.60;1.00
20839;DHT22;10580;51.092;6.828;2022-09-12T13:31:34;27.50;42.20
20839;DHT22;10580;51.092;6.828;2022-09-12T13:34:02;27.40;55.10
20839;DHT22;10580;51.092;6.828;2022-09-12T13:37:11;27.30;1.00
20839;DHT22;10580;51.092;6.828;2022-09-12T13:40:12;27.30;99.90
20839;DHT22;10580;51.092;6.828;2022-09-12T13:42:43;27.20;99.90
20839;DHT22;10580;51.092;6.828;2022-09-12T13:45:23;27.10;99.90
20839;DHT22;10580;51.092;6.828;2022-09-12T13:47:58;27.00;99.90
20839;DHT22;10580;51.092;6.828;2022-09-12T13:52:58;27.20;98.10
20839;DHT22;10580;51.092;6.828;2022-09-12T13:55:30;27.50;23.40
20839;DHT22;10580;51.092;6.828;2022-09-12T13:58:19;27.80;99.90
20839;DHT22;10580;51.092;6.828;2022-09-12T14:00:46;27.80;1.00
20839;DHT22;10580;51.092;6.828;2022-09-12T14:03:32;27.70;1.00
20839;DHT22;10580;51.092;6.828;2022-09-12T14:06:17;27.70;99.90
20839;DHT22;10580;51.092;6.828;2022-09-12T14:08:46;27.50;15.30
20839;DHT22;10580;51.092;6.828;2022-09-12T14:11:24;27.40;99.90
20839;DHT22;10580;51.092;6.828;2022-09-12T14:13:50;27.30;99.90
20839;DHT22;10580;51.092;6.828;2022-09-12T14:16:17;27.20;99.90
20839;DHT22;10580;51.092;6.828;2022-09-12T14:18:46;26.80;99.90
20839;DHT22;10580;51.092;6.828;2022-09-12T14:23:55;27.00;1.00
20839;DHT22;10580;51.092;6.828;2022-09-12T14:26:22;27.20;99.90
20839;DHT22;10580;51.092;6.828;2022-09-12T14:28:49;27.30;1.00
20839;DHT22;10580;51.092;6.828;2022-09-12T14:31:21;27.30;1.00
20839;DHT22;10580;51.092;6.828;2022-09-12T14:36:44;27.30;99.90
20839;DHT22;10580;51.092;6.828;2022-09-12T14:39:37;27.10;99.90
20839;DHT22;10580;51.092;6.828;2022-09-12T14:42:14;26.90;1.00
20839;DHT22;10580;51.092;6.828;2022-09-12T14:44:54;26.80;99.90
20839;DHT22;10580;51.092;6.828;2022-09-12T14:47:23;26.80;33.90
20839;DHT22;10580;51.092;6.828;2022-09-12T14:49:50;27.00;99.90
20839;DHT22;10580;51.092;6.828;2022-09-12T14:52:31;27.00;99.90
20839;DHT22;10580;51.092;6.828;2022-09-12T14:57:37;26.80;1.00
20839;DHT22;10580;51.092;6.828;2022-09-12T15:02:42;26.60;1.00
20839;DHT22;10580;51.092;6.828;2022-09-12T15:07:51;26.50;1.00
20839;DHT22;10580;51.092;6.828;2022-09-12T15:15:41;26.50;1.00
20839;DHT22;10580;51.092;6.828;2022-09-12T15:18:07;26.40;1.00
20839;DHT22;10580;51.092;6.828;2022-09-12T15:20:35;26.30;1.00
20839;DHT22;10580;51.092;6.828;2022-09-12T15:23:01;26.20;1.00
20839;DHT22;10580;51.092;6.828;2022-09-12T15:25:26;26.20;99.90
20839;DHT22;10580;51.092;6.828;2022-09-12T15:27:52;26.10;99.90
20839;DHT22;10580;51.092;6.828;2022-09-12T15:30:19;26.00;1.00
20839;DHT22;10580;51.092;6.828;2022-09-12T15:32:44;25.90;32.50
20839;DHT22;10580;51.092;6.828;2022-09-12T15:35:23;25.80;99.90
20839;DHT22;10580;51.092;6.828;2022-09-12T15:37:50;25.70;99.90
20839;DHT22;10580;51.092;6.828;2022-09-12T15:40:16;25.60;1.00
20839;DHT22;10580;51.092;6.828;2022-09-12T15:42:42;25.50;99.90
20839;DHT22;10580;51.092;6.828;2022-09-12T15:45:19;25.50;36.80
20839;DHT22;10580;51.092;6.828;2022-09-12T16:12:36;25.00;1.00
20839;DHT22;10580;51.092;6.828;2022-09-12T16:15:17;24.90;99.90
20839;DHT22;10580;51.092;6.828;2022-09-12T16:27:16;24.80;1.00
20839;DHT22;10580;51.092;6.828;2022-09-12T16:40:50;24.90;1.00
20839;DHT22;10580;51.092;6.828;2022-09-12T17:06:34;24.40;1.00
20839;DHT22;10580;51.092;6.828;2022-09-12T17:09:00;24.40;1.00
20839;DHT22;10580;51.092;6.828;2022-09-12T17:11:36;24.40;1.00
20839;DHT22;10580;51.092;6.828;2022-09-12T17:23:27;24.00;99.90
20839;DHT22;10580;51.092;6.828;2022-09-12T17:33:14;23.50;99.90
20839;DHT22;10580;51.092;6.828;2022-09-12T17:51:43;22.70;1.00
20839;DHT22;10580;51.092;6.828;2022-09-12T18:25:16;21.70;1.00
20839;DHT22;10580;51.092;6.828;2022-09-12T18:27:42;21.60;1.00
20839;DHT22;10580;51.092;6.828;2022-09-12T18:30:08;21.50;1.00
20839;DHT22;10580;51.092;6.828;2022-09-12T18:32:33;21.50;1.00
20839;DHT22;10580;51.092;6.828;2022-09-12T18:34:59;21.50;1.00
20839;DHT22;10580;51.092;6.828;2022-09-12T18:37:27;21.40;1.00
20839;DHT22;10580;51.092;6.828;2022-09-12T18:42:45;21.30;1.00
20839;DHT22;10580;51.092;6.828;2022-09-12T18:45:11;21.20;1.00
20839;DHT22;10580;51.092;6.828;2022-09-12T18:47:37;21.20;1.00
20839;DHT22;10580;51.092;6.828;2022-09-12T18:50:02;21.10;1.00
20839;DHT22;10580;51.092;6.828;2022-09-12T18:52:28;21.00;1.00
20839;DHT22;10580;51.092;6.828;2022-09-12T18:54:54;21.00;1.00
20839;DHT22;10580;51.092;6.828;2022-09-12T18:57:19;20.90;1.00
20839;DHT22;10580;51.092;6.828;2022-09-12T18:59:45;20.90;1.00
20839;DHT22;10580;51.092;6.828;2022-09-12T19:02:14;20.80;1.00
20839;DHT22;10580;51.092;6.828;2022-09-12T19:04:40;20.80;1.00
20839;DHT22;10580;51.092;6.828;2022-09-12T19:07:31;20.80;1.00
20839;DHT22;10580;51.092;6.828;2022-09-12T19:09:56;20.70;1.00
20839;DHT22;10580;51.092;6.828;2022-09-12T19:12:22;20.70;1.00
20839;DHT22;10580;51.092;6.828;2022-09-12T19:15:10;20.70;1.00
20839;DHT22;10580;51.092;6.828;2022-09-12T19:17:35;20.70;1.00
20839;DHT22;10580;51.092;6.828;2022-09-12T19:20:04;20.60;1.00
20839;DHT22;10580;51.092;6.828;2022-09-12T19:26:00;20.60;1.00
20839;DHT22;10580;51.092;6.828;2022-09-12T19:28:45;20.60;1.00
20839;DHT22;10580;51.092;6.828;2022-09-12T19:31:35;20.70;1.00
20839;DHT22;10580;51.092;6.828;2022-09-12T19:37:44;20.60;1.00
20839;DHT22;10580;51.092;6.828;2022-09-12T19:40:09;20.50;1.00
20839;DHT22;10580;51.092;6.828;2022-09-12T19:45:49;20.50;1.00
20839;DHT22;10580;51.092;6.828;2022-09-12T19:48:28;20.40;1.00
20839;DHT22;10580;51.092;6.828;2022-09-12T19:54:47;20.30;1.00
20839;DHT22;10580;51.092;6.828;2022-09-12T20:00:21;20.20;1.00
20839;DHT22;10580;51.092;6.828;2022-09-12T20:06:09;20.00;1.00
20839;DHT22;10580;51.092;6.828;2022-09-12T20:09:05;19.90;1.00
20839;DHT22;10580;51.092;6.828;2022-09-12T20:11:39;19.80;1.00
20839;DHT22;10580;51.092;6.828;2022-09-12T20:16:42;19.80;1.00
20839;DHT22;10580;51.092;6.828;2022-09-12T20:19:23;19.70;1.00
20839;DHT22;10580;51.092;6.828;2022-09-12T20:25:10;19.70;1.00
20839;DHT22;10580;51.092;6.828;2022-09-12T20:27:55;19.70;1.00
20839;DHT22;10580;51.092;6.828;2022-09-12T20:30:20;19.70;1.00
20839;DHT22;10580;51.092;6.828;2022-09-12T20:33:04;19.70;1.00
20839;DHT22;10580;51.092;6.828;2022-09-12T20:35:35;19.70;1.00
20839;DHT22;10580;51.092;6.828;2022-09-12T20:38:00;19.70;1.00
20839;DHT22;10580;51.092;6.828;2022-09-12T20:46:53;19.70;1.00
20839;DHT22;10580;51.092;6.828;2022-09-12T20:52:44;19.70;1.00
20839;DHT22;10580;51.092;6.828;2022-09-12T20:58:44;19.60;1.00
20839;DHT22;10580;51.092;6.828;2022-09-12T21:01:28;19.60;1.00
20839;DHT22;10580;51.092;6.828;2022-09-12T21:04:03;19.50;1.00
20839;DHT22;10580;51.092;6.828;2022-09-12T21:13:09;19.40;3.70
20839;DHT22;10580;51.092;6.828;2022-09-12T21:15:36;19.40;6.40
20839;DHT22;10580;51.092;6.828;2022-09-12T21:18:01;19.40;5.10
20839;DHT22;10580;51.092;6.828;2022-09-12T21:20:27;19.30;10.60
20839;DHT22;10580;51.092;6.828;2022-09-12T21:26:05;19.30;15.10
20839;DHT22;10580;51.092;6.828;2022-09-12T21:35:43;19.10;27.90
20839;DHT22;10580;51.092;6.828;2022-09-12T21:38:09;19.00;41.20
20839;DHT22;10580;51.092;6.828;2022-09-12T21:44:05;18.80;39.70
20839;DHT22;10580;51.092;6.828;2022-09-12T21:46:31;18.90;35.60
20839;DHT22;10580;51.092;6.828;2022-09-12T21:52:41;18.90;24.00
20839;DHT22;10580;51.092;6.828;2022-09-12T21:55:31;19.00;18.90
20839;DHT22;10580;51.092;6.828;2022-09-12T22:13:28;18.70;44.90
20839;DHT22;10580;51.092;6.828;2022-09-12T22:15:59;18.70;51.70
20839;DHT22;10580;51.092;6.828;2022-09-12T22:18:39;18.60;47.60
20839;DHT22;10580;51.092;6.828;2022-09-12T22:21:16;18.60;51.40
20839;DHT22;10580;51.092;6.828;2022-09-12T22:33:54;18.70;47.60
20839;DHT22;10580;51.092;6.828;2022-09-12T22:36:33;18.50;53.00
20839;DHT22;10580;51.092;6.828;2022-09-12T22:38:59;18.50;61.80
20839;DHT22;10580;51.092;6.828;2022-09-12T22:51:02;18.20;99.90
20839;DHT22;10580;51.092;6.828;2022-09-12T22:53:28;18.10;99.90
20839;DHT22;10580;51.092;6.828;2022-09-12T23:01:50;17.90;99.90
20839;DHT22;10580;51.092;6.828;2022-09-12T23:06:52;17.80;99.90
20839;DHT22;10580;51.092;6.828;2022-09-12T23:09:34;17.80;99.90
20839;DHT22;10580;51.092;6.828;2022-09-12T23:12:09;17.70;99.90
20839;DHT22;10580;51.092;6.828;2022-09-12T23:17:40;17.50;99.90
20839;DHT22;10580;51.092;6.828;2022-09-12T23:30:01;17.30;99.90
20839;DHT22;10580;51.092;6.828;2022-09-12T23:32:30;17.30;99.90
20839;DHT22;10580;51.092;6.828;2022-09-12T23:34:55;17.30;99.90
20839;DHT22;10580;51.092;6.828;2022-09-12T23:37:39;17.40;99.90
20839;DHT22;10580;51.092;6.828;2022-09-12T23:40:08;17.40;99.90
20839;DHT22;10580;51.092;6.828;2022-09-12T23:42:34;17.40;99.90
20839;DHT22;10580;51.092;6.828;2022-09-12T23:44:59;17.40;99.90
20839;DHT22;10580;51.092;6.828;2022-09-12T23:47:47;17.40;99.90
20839;DHT22;10580;51.092;6.828;2022-09-12T23:50:15;17.40;99.90
20839;DHT22;10580;51.092;6.828;2022-09-12T23:52:41;17.40;99.90
20839;DHT22;10580;51.092;6.828;2022-09-12T23:55:07;17.40;99.90
20839;DHT22;10580;51.092;6.828;2022-09-12T23:57:32;17.40;99.90
